sensor_id;sensor_type;location;lat;lon;timestamp;P1;durP1;ratioP1;P2;durP2;ratioP2
16979;SDS011;42288;52.182;21.156;2024-01-15T00:02:15;16.10;;;8.23;;
16979;SDS011;42288;52.182;21.156;2024-01-15T00:04:40;17.23;;;8.17;;
16979;SDS011;42288;52.182;21.156;2024-01-15T00:07:07;20.43;;;9.20;;
16979;SDS011;42288;52.182;21.156;2024-01-15T00:09:33;16.83;;;8.57;;
16979;SDS011;42288;52.182;21.156;2024-01-15T00:11:59;20.33;;;9.77;;
16979;SDS011;42288;52.182;21.156;2024-01-15T00:14:25;18.13;;;9.30;;
16979;SDS011;42288;52.182;21.156;2024-01-15T00:16:50;17.33;;;9.27;;
16979;SDS011;42288;52.182;21.156;2024-01-15T00:19:16;21.43;;;10.80;;
16979;SDS011;42288;52.182;21.156;2024-01-15T00:21:43;15.27;;;9.07;;
16979;SDS011;42288;52.182;21.156;2024-01-15T00:24:09;20.13;;;9.73;;
16979;SDS011;42288;52.182;21.156;2024-01-15T00:26:34;23.70;;;10.23;;
16979;SDS011;42288;52.182;21.156;2024-01-15T00:29:00;17.33;;;9.00;;
16979;SDS011;42288;52.182;21.156;2024-01-15T00:31:25;12.70;;;7.40;;
16979;SDS011;42288;52.182;21.156;2024-01-15T00:33:51;16.43;;;9.07;;
16979;SDS011;42288;52.182;21.156;2024-01-15T00:36:17;17.03;;;8.83;;
16979;SDS011;42288;52.182;21.156;2024-01-15T00:38:43;22.13;;;10.83;;
16979;SDS011;42288;52.182;21.156;2024-01-15T00:41:09;19.13;;;9.40;;
16979;SDS011;42288;52.182;21.156;2024-01-15T00:43:35;20.47;;;10.27;;
16979;SDS011;42288;52.182;21.156;2024-01-15T00:46:03;18.73;;;9.73;;
16979;SDS011;42288;52.182;21.156;2024-01-15T00:48:29;15.53;;;8.57;;
16979;SDS011;42288;52.182;21.156;2024-01-15T00:50:54;14.80;;;8.70;;
16979;SDS011;42288;52.182;21.156;2024-01-15T00:53:20;17.10;;;8.60;;
16979;SDS011;42288;52.182;21.156;2024-01-15T00:55:49;16.70;;;9.40;;
16979;SDS011;42288;52.182;21.156;2024-01-15T00:58:14;21.07;;;10.87;;
16979;SDS011;42288;52.182;21.156;2024-01-15T01:00:40;19.07;;;8.97;;
16979;SDS011;42288;52.182;21.156;2024-01-15T01:03:07;17.77;;;9.93;;
16979;SDS011;42288;52.182;21.156;2024-01-15T01:05:33;19.57;;;9.13;;
16979;SDS011;42288;52.182;21.156;2024-01-15T01:07:59;20.57;;;10.50;;
16979;SDS011;42288;52.182;21.156;2024-01-15T01:10:24;19.10;;;10.73;;
16979;SDS011;42288;52.182;21.156;2024-01-15T01:12:50;18.07;;;9.67;;
16979;SDS011;42288;52.182;21.156;2024-01-15T01:15:15;22.03;;;11.43;;
16979;SDS011;42288;52.182;21.156;2024-01-15T01:17:41;17.90;;;9.70;;
16979;SDS011;42288;52.182;21.156;2024-01-15T01:20:07;24.83;;;13.00;;
16979;SDS011;42288;52.182;21.156;2024-01-15T01:22:34;20.87;;;12.27;;
16979;SDS011;42288;52.182;21.156;2024-01-15T01:25:00;26.87;;;13.57;;
16979;SDS011;42288;52.182;21.156;2024-01-15T01:27:25;29.80;;;14.83;;
16979;SDS011;42288;52.182;21.156;2024-01-15T01:29:51;23.03;;;10.93;;
16979;SDS011;42288;52.182;21.156;2024-01-15T01:32:17;18.87;;;10.83;;
16979;SDS011;42288;52.182;21.156;2024-01-15T01:34:42;29.40;;;13.57;;
16979;SDS011;42288;52.182;21.156;2024-01-15T01:37:08;24.57;;;13.07;;
16979;SDS011;42288;52.182;21.156;2024-01-15T01:39:34;24.33;;;11.70;;
16979;SDS011;42288;52.182;21.156;2024-01-15T01:42:00;26.23;;;14.50;;
16979;SDS011;42288;52.182;21.156;2024-01-15T01:44:25;24.07;;;13.23;;
16979;SDS011;42288;52.182;21.156;2024-01-15T01:46:51;22.80;;;12.40;;
16979;SDS011;42288;52.182;21.156;2024-01-15T01:49:17;25.37;;;13.07;;
16979;SDS011;42288;52.182;21.156;2024-01-15T01:51:43;21.77;;;12.27;;
16979;SDS011;42288;52.182;21.156;2024-01-15T01:54:09;25.77;;;12.20;;
16979;SDS011;42288;52.182;21.156;2024-01-15T01:56:37;30.33;;;16.30;;
16979;SDS011;42288;52.182;21.156;2024-01-15T01:59:03;24.97;;;14.73;;
16979;SDS011;42288;52.182;21.156;2024-01-15T02:01:30;27.97;;;14.30;;
16979;SDS011;42288;52.182;21.156;2024-01-15T02:03:56;28.93;;;14.03;;
16979;SDS011;42288;52.182;21.156;2024-01-15T02:06:23;23.90;;;11.87;;
16979;SDS011;42288;52.182;21.156;2024-01-15T02:08:48;30.30;;;16.40;;
16979;SDS011;42288;52.182;21.156;2024-01-15T02:11:15;23.83;;;13.17;;
16979;SDS011;42288;52.182;21.156;2024-01-15T02:13:40;25.33;;;13.00;;
16979;SDS011;42288;52.182;21.156;2024-01-15T02:16:06;26.60;;;14.00;;
16979;SDS011;42288;52.182;21.156;2024-01-15T02:18:41;25.80;;;13.50;;
16979;SDS011;42288;52.182;21.156;2024-01-15T02:21:07;23.23;;;12.93;;
16979;SDS011;42288;52.182;21.156;2024-01-15T02:23:33;26.43;;;14.63;;
16979;SDS011;42288;52.182;21.156;2024-01-15T02:25:59;25.97;;;14.07;;
16979;SDS011;42288;52.182;21.156;2024-01-15T02:28:24;26.97;;;12.87;;
16979;SDS011;42288;52.182;21.156;2024-01-15T02:30:50;19.80;;;11.27;;
16979;SDS011;42288;52.182;21.156;2024-01-15T02:33:15;27.93;;;14.20;;
16979;SDS011;42288;52.182;21.156;2024-01-15T02:35:41;26.40;;;13.47;;
16979;SDS011;42288;52.182;21.156;2024-01-15T02:38:06;29.87;;;14.20;;
16979;SDS011;42288;52.182;21.156;2024-01-15T02:40:32;21.50;;;11.07;;
16979;SDS011;42288;52.182;21.156;2024-01-15T02:42:58;23.40;;;12.13;;
16979;SDS011;42288;52.182;21.156;2024-01-15T02:45:24;21.10;;;11.60;;
16979;SDS011;42288;52.182;21.156;2024-01-15T02:47:49;24.93;;;13.20;;
16979;SDS011;42288;52.182;21.156;2024-01-15T02:50:15;27.73;;;14.63;;
16979;SDS011;42288;52.182;21.156;2024-01-15T02:52:41;22.40;;;11.27;;
16979;SDS011;42288;52.182;21.156;2024-01-15T02:55:07;21.93;;;11.37;;
16979;SDS011;42288;52.182;21.156;2024-01-15T02:57:33;22.93;;;11.97;;
16979;SDS011;42288;52.182;21.156;2024-01-15T02:59:59;21.30;;;10.47;;
16979;SDS011;42288;52.182;21.156;2024-01-15T03:02:24;21.50;;;10.73;;
16979;SDS011;42288;52.182;21.156;2024-01-15T03:04:50;23.20;;;12.67;;
16979;SDS011;42288;52.182;21.156;2024-01-15T03:07:15;22.00;;;12.10;;
16979;SDS011;42288;52.182;21.156;2024-01-15T03:09:41;20.63;;;10.23;;
16979;SDS011;42288;52.182;21.156;2024-01-15T03:12:07;21.20;;;10.70;;
16979;SDS011;42288;52.182;21.156;2024-01-15T03:14:32;24.27;;;12.73;;
16979;SDS011;42288;52.182;21.156;2024-01-15T03:16:58;19.87;;;10.87;;
16979;SDS011;42288;52.182;21.156;2024-01-15T03:19:23;21.97;;;11.90;;
16979;SDS011;42288;52.182;21.156;2024-01-15T03:21:49;22.67;;;12.63;;
16979;SDS011;42288;52.182;21.156;2024-01-15T03:24:14;19.60;;;10.63;;
16979;SDS011;42288;52.182;21.156;2024-01-15T03:26:40;26.43;;;12.63;;
16979;SDS011;42288;52.182;21.156;2024-01-15T03:29:05;23.53;;;11.17;;
16979;SDS011;42288;52.182;21.156;2024-01-15T03:31:32;26.63;;;14.27;;
16979;SDS011;42288;52.182;21.156;2024-01-15T03:33:58;32.13;;;14.70;;
16979;SDS011;42288;52.182;21.156;2024-01-15T03:36:23;31.23;;;15.67;;
16979;SDS011;42288;52.182;21.156;2024-01-15T03:38:48;27.13;;;14.37;;
16979;SDS011;42288;52.182;21.156;2024-01-15T03:41:14;31.47;;;15.40;;
16979;SDS011;42288;52.182;21.156;2024-01-15T03:43:40;30.23;;;14.63;;
16979;SDS011;42288;52.182;21.156;2024-01-15T03:46:05;35.03;;;17.33;;
16979;SDS011;42288;52.182;21.156;2024-01-15T03:48:31;28.63;;;14.50;;
16979;SDS011;42288;52.182;21.156;2024-01-15T03:50:57;33.27;;;15.80;;
16979;SDS011;42288;52.182;21.156;2024-01-15T03:53:22;29.70;;;14.00;;
16979;SDS011;42288;52.182;21.156;2024-01-15T03:55:48;29.67;;;15.27;;
16979;SDS011;42288;52.182;21.156;2024-01-15T03:58:14;27.60;;;14.93;;
16979;SDS011;42288;52.182;21.156;2024-01-15T04:00:40;26.60;;;13.17;;
16979;SDS011;42288;52.182;21.156;2024-01-15T04:03:06;25.07;;;13.27;;
16979;SDS011;42288;52.182;21.156;2024-01-15T04:05:31;26.77;;;12.87;;
16979;SDS011;42288;52.182;21.156;2024-01-15T04:07:57;23.40;;;11.70;;
16979;SDS011;42288;52.182;21.156;2024-01-15T04:10:22;30.20;;;15.87;;
16979;SDS011;42288;52.182;21.156;2024-01-15T04:12:48;29.17;;;13.33;;
16979;SDS011;42288;52.182;21.156;2024-01-15T04:15:14;26.77;;;13.10;;
16979;SDS011;42288;52.182;21.156;2024-01-15T04:17:40;26.07;;;12.87;;
16979;SDS011;42288;52.182;21.156;2024-01-15T04:20:06;25.63;;;13.73;;
16979;SDS011;42288;52.182;21.156;2024-01-15T04:22:33;27.47;;;13.87;;
16979;SDS011;42288;52.182;21.156;2024-01-15T04:24:59;29.50;;;15.23;;
16979;SDS011;42288;52.182;21.156;2024-01-15T04:27:25;23.30;;;11.27;;
16979;SDS011;42288;52.182;21.156;2024-01-15T04:29:50;29.17;;;14.57;;
16979;SDS011;42288;52.182;21.156;2024-01-15T04:32:16;27.67;;;12.87;;
16979;SDS011;42288;52.182;21.156;2024-01-15T04:34:41;26.10;;;13.90;;
16979;SDS011;42288;52.182;21.156;2024-01-15T04:37:07;21.57;;;11.33;;
16979;SDS011;42288;52.182;21.156;2024-01-15T04:39:32;28.57;;;13.27;;
16979;SDS011;42288;52.182;21.156;2024-01-15T04:41:58;22.37;;;11.63;;
16979;SDS011;42288;52.182;21.156;2024-01-15T04:44:24;20.83;;;10.77;;
16979;SDS011;42288;52.182;21.156;2024-01-15T04:46:49;18.57;;;10.27;;
16979;SDS011;42288;52.182;21.156;2024-01-15T04:49:14;23.77;;;12.97;;
16979;SDS011;42288;52.182;21.156;2024-01-15T04:51:40;21.77;;;10.97;;
16979;SDS011;42288;52.182;21.156;2024-01-15T04:54:06;20.97;;;10.87;;
16979;SDS011;42288;52.182;21.156;2024-01-15T04:56:31;23.33;;;11.27;;
16979;SDS011;42288;52.182;21.156;2024-01-15T04:58:57;23.93;;;11.60;;
16979;SDS011;42288;52.182;21.156;2024-01-15T05:01:22;22.03;;;11.43;;
16979;SDS011;42288;52.182;21.156;2024-01-15T05:03:48;22.27;;;12.80;;
16979;SDS011;42288;52.182;21.156;2024-01-15T05:06:14;21.53;;;10.90;;
16979;SDS011;42288;52.182;21.156;2024-01-15T05:08:40;18.73;;;10.43;;
16979;SDS011;42288;52.182;21.156;2024-01-15T05:11:05;20.53;;;10.67;;
16979;SDS011;42288;52.182;21.156;2024-01-15T05:13:31;21.10;;;11.00;;
16979;SDS011;42288;52.182;21.156;2024-01-15T05:15:56;23.93;;;12.23;;
16979;SDS011;42288;52.182;21.156;2024-01-15T05:18:22;22.63;;;11.97;;
16979;SDS011;42288;52.182;21.156;2024-01-15T05:20:47;22.57;;;11.07;;
16979;SDS011;42288;52.182;21.156;2024-01-15T05:23:13;20.23;;;10.33;;
16979;SDS011;42288;52.182;21.156;2024-01-15T05:25:38;20.60;;;10.83;;
16979;SDS011;42288;52.182;21.156;2024-01-15T05:28:04;25.57;;;13.27;;
16979;SDS011;42288;52.182;21.156;2024-01-15T05:30:30;20.17;;;10.10;;
16979;SDS011;42288;52.182;21.156;2024-01-15T05:32:56;21.83;;;10.13;;
16979;SDS011;42288;52.182;21.156;2024-01-15T05:35:22;20.20;;;10.43;;
16979;SDS011;42288;52.182;21.156;2024-01-15T05:37:48;21.10;;;10.63;;
16979;SDS011;42288;52.182;21.156;2024-01-15T05:40:13;21.77;;;11.70;;
16979;SDS011;42288;52.182;21.156;2024-01-15T05:42:39;22.57;;;11.40;;
16979;SDS011;42288;52.182;21.156;2024-01-15T05:45:06;17.47;;;9.90;;
16979;SDS011;42288;52.182;21.156;2024-01-15T05:47:32;22.67;;;10.40;;
16979;SDS011;42288;52.182;21.156;2024-01-15T05:49:57;19.17;;;9.93;;
16979;SDS011;42288;52.182;21.156;2024-01-15T05:52:23;19.13;;;10.23;;
16979;SDS011;42288;52.182;21.156;2024-01-15T05:54:49;24.77;;;10.97;;
16979;SDS011;42288;52.182;21.156;2024-01-15T05:57:15;20.23;;;10.97;;
16979;SDS011;42288;52.182;21.156;2024-01-15T05:59:40;20.43;;;10.77;;
16979;SDS011;42288;52.182;21.156;2024-01-15T06:02:06;18.73;;;10.90;;
16979;SDS011;42288;52.182;21.156;2024-01-15T06:04:32;19.97;;;9.33;;
16979;SDS011;42288;52.182;21.156;2024-01-15T06:06:57;18.17;;;9.33;;
16979;SDS011;42288;52.182;21.156;2024-01-15T06:09:23;17.37;;;9.47;;
16979;SDS011;42288;52.182;21.156;2024-01-15T06:11:48;16.87;;;9.70;;
16979;SDS011;42288;52.182;21.156;2024-01-15T06:14:14;17.93;;;10.10;;
16979;SDS011;42288;52.182;21.156;2024-01-15T06:16:39;18.00;;;10.03;;
16979;SDS011;42288;52.182;21.156;2024-01-15T06:19:05;16.90;;;9.20;;
16979;SDS011;42288;52.182;21.156;2024-01-15T06:21:30;17.00;;;9.10;;
16979;SDS011;42288;52.182;21.156;2024-01-15T06:23:56;18.53;;;9.80;;
16979;SDS011;42288;52.182;21.156;2024-01-15T06:26:22;18.63;;;9.27;;
16979;SDS011;42288;52.182;21.156;2024-01-15T06:28:48;18.30;;;10.20;;
16979;SDS011;42288;52.182;21.156;2024-01-15T06:31:13;17.07;;;9.33;;
16979;SDS011;42288;52.182;21.156;2024-01-15T06:33:39;18.93;;;10.47;;
16979;SDS011;42288;52.182;21.156;2024-01-15T06:36:05;17.57;;;9.73;;
16979;SDS011;42288;52.182;21.156;2024-01-15T06:38:31;19.27;;;10.83;;
16979;SDS011;42288;52.182;21.156;2024-01-15T06:40:56;19.03;;;10.77;;
16979;SDS011;42288;52.182;21.156;2024-01-15T06:43:22;18.33;;;8.97;;
16979;SDS011;42288;52.182;21.156;2024-01-15T06:45:48;19.97;;;9.63;;
16979;SDS011;42288;52.182;21.156;2024-01-15T06:48:13;18.87;;;10.20;;
16979;SDS011;42288;52.182;21.156;2024-01-15T06:50:41;17.27;;;8.30;;
16979;SDS011;42288;52.182;21.156;2024-01-15T06:53:09;20.77;;;10.83;;
16979;SDS011;42288;52.182;21.156;2024-01-15T06:55:35;17.30;;;9.73;;
16979;SDS011;42288;52.182;21.156;2024-01-15T06:58:00;16.60;;;9.60;;
16979;SDS011;42288;52.182;21.156;2024-01-15T07:00:26;15.87;;;8.93;;
16979;SDS011;42288;52.182;21.156;2024-01-15T07:02:52;14.53;;;7.93;;
16979;SDS011;42288;52.182;21.156;2024-01-15T07:05:18;14.90;;;7.70;;
16979;SDS011;42288;52.182;21.156;2024-01-15T07:07:45;15.13;;;8.93;;
16979;SDS011;42288;52.182;21.156;2024-01-15T07:10:11;13.80;;;8.33;;
16979;SDS011;42288;52.182;21.156;2024-01-15T07:12:36;14.20;;;8.57;;
16979;SDS011;42288;52.182;21.156;2024-01-15T07:15:02;19.97;;;10.20;;
16979;SDS011;42288;52.182;21.156;2024-01-15T07:17:29;18.93;;;10.07;;
16979;SDS011;42288;52.182;21.156;2024-01-15T07:19:56;15.03;;;8.60;;
16979;SDS011;42288;52.182;21.156;2024-01-15T07:22:21;17.60;;;10.13;;
16979;SDS011;42288;52.182;21.156;2024-01-15T07:24:47;18.43;;;10.47;;
16979;SDS011;42288;52.182;21.156;2024-01-15T07:27:12;19.90;;;10.63;;
16979;SDS011;42288;52.182;21.156;2024-01-15T07:29:38;22.10;;;11.30;;
16979;SDS011;42288;52.182;21.156;2024-01-15T07:32:03;18.70;;;9.30;;
16979;SDS011;42288;52.182;21.156;2024-01-15T07:34:29;19.13;;;11.00;;
16979;SDS011;42288;52.182;21.156;2024-01-15T07:36:55;17.80;;;9.80;;
16979;SDS011;42288;52.182;21.156;2024-01-15T07:39:21;23.57;;;11.83;;
16979;SDS011;42288;52.182;21.156;2024-01-15T07:41:49;23.30;;;11.50;;
16979;SDS011;42288;52.182;21.156;2024-01-15T07:44:15;21.73;;;12.00;;
16979;SDS011;42288;52.182;21.156;2024-01-15T07:46:43;26.93;;;14.23;;
16979;SDS011;42288;52.182;21.156;2024-01-15T07:49:12;23.40;;;11.73;;
16979;SDS011;42288;52.182;21.156;2024-01-15T07:51:38;18.27;;;10.40;;
16979;SDS011;42288;52.182;21.156;2024-01-15T07:54:05;20.13;;;10.67;;
16979;SDS011;42288;52.182;21.156;2024-01-15T07:56:31;26.47;;;13.77;;
16979;SDS011;42288;52.182;21.156;2024-01-15T07:58:57;20.40;;;10.77;;
16979;SDS011;42288;52.182;21.156;2024-01-15T08:01:23;26.10;;;12.17;;
16979;SDS011;42288;52.182;21.156;2024-01-15T08:03:48;19.87;;;11.17;;
16979;SDS011;42288;52.182;21.156;2024-01-15T08:06:14;20.63;;;10.77;;
16979;SDS011;42288;52.182;21.156;2024-01-15T08:08:40;21.77;;;11.53;;
16979;SDS011;42288;52.182;21.156;2024-01-15T08:11:05;22.77;;;11.93;;
16979;SDS011;42288;52.182;21.156;2024-01-15T08:13:31;16.47;;;9.33;;
16979;SDS011;42288;52.182;21.156;2024-01-15T08:15:56;20.13;;;10.97;;
16979;SDS011;42288;52.182;21.156;2024-01-15T08:18:22;17.83;;;9.47;;
16979;SDS011;42288;52.182;21.156;2024-01-15T08:20:48;18.90;;;10.30;;
16979;SDS011;42288;52.182;21.156;2024-01-15T08:23:13;21.60;;;11.67;;
16979;SDS011;42288;52.182;21.156;2024-01-15T08:25:39;27.70;;;12.73;;
16979;SDS011;42288;52.182;21.156;2024-01-15T08:28:04;20.57;;;10.93;;
16979;SDS011;42288;52.182;21.156;2024-01-15T08:30:30;21.83;;;11.40;;
16979;SDS011;42288;52.182;21.156;2024-01-15T08:32:56;20.07;;;10.80;;
16979;SDS011;42288;52.182;21.156;2024-01-15T08:35:21;19.37;;;10.93;;
16979;SDS011;42288;52.182;21.156;2024-01-15T08:37:51;14.23;;;8.57;;
16979;SDS011;42288;52.182;21.156;2024-01-15T08:40:17;17.77;;;10.40;;
16979;SDS011;42288;52.182;21.156;2024-01-15T08:42:43;19.23;;;10.17;;
16979;SDS011;42288;52.182;21.156;2024-01-15T08:45:10;16.67;;;9.87;;
16979;SDS011;42288;52.182;21.156;2024-01-15T08:47:36;14.77;;;8.63;;
16979;SDS011;42288;52.182;21.156;2024-01-15T08:50:02;17.77;;;9.17;;
16979;SDS011;42288;52.182;21.156;2024-01-15T08:52:29;19.03;;;9.07;;
16979;SDS011;42288;52.182;21.156;2024-01-15T08:54:56;15.10;;;9.40;;
16979;SDS011;42288;52.182;21.156;2024-01-15T08:57:22;18.83;;;9.83;;
16979;SDS011;42288;52.182;21.156;2024-01-15T08:59:48;24.03;;;10.57;;
16979;SDS011;42288;52.182;21.156;2024-01-15T09:02:13;17.50;;;10.17;;
16979;SDS011;42288;52.182;21.156;2024-01-15T09:04:39;20.90;;;11.70;;
16979;SDS011;42288;52.182;21.156;2024-01-15T09:07:05;26.23;;;13.23;;
16979;SDS011;42288;52.182;21.156;2024-01-15T09:09:32;21.03;;;12.40;;
16979;SDS011;42288;52.182;21.156;2024-01-15T09:11:57;19.30;;;10.20;;
16979;SDS011;42288;52.182;21.156;2024-01-15T09:14:23;20.37;;;10.30;;
16979;SDS011;42288;52.182;21.156;2024-01-15T09:16:49;19.10;;;10.23;;
16979;SDS011;42288;52.182;21.156;2024-01-15T09:19:15;15.70;;;8.87;;
16979;SDS011;42288;52.182;21.156;2024-01-15T09:21:40;16.83;;;10.13;;
16979;SDS011;42288;52.182;21.156;2024-01-15T09:24:06;18.80;;;8.90;;
16979;SDS011;42288;52.182;21.156;2024-01-15T09:26:31;14.90;;;8.83;;
16979;SDS011;42288;52.182;21.156;2024-01-15T09:28:57;16.50;;;8.97;;
16979;SDS011;42288;52.182;21.156;2024-01-15T09:31:22;15.97;;;8.20;;
16979;SDS011;42288;52.182;21.156;2024-01-15T09:33:48;12.97;;;8.13;;
16979;SDS011;42288;52.182;21.156;2024-01-15T09:36:14;13.87;;;8.07;;
16979;SDS011;42288;52.182;21.156;2024-01-15T09:38:40;11.73;;;7.37;;
16979;SDS011;42288;52.182;21.156;2024-01-15T09:41:06;17.93;;;7.63;;
16979;SDS011;42288;52.182;21.156;2024-01-15T09:43:32;15.27;;;7.33;;
16979;SDS011;42288;52.182;21.156;2024-01-15T09:45:58;10.97;;;6.80;;
16979;SDS011;42288;52.182;21.156;2024-01-15T09:48:24;18.73;;;7.03;;
16979;SDS011;42288;52.182;21.156;2024-01-15T09:50:50;11.03;;;6.63;;
16979;SDS011;42288;52.182;21.156;2024-01-15T09:53:17;13.73;;;6.70;;
16979;SDS011;42288;52.182;21.156;2024-01-15T09:55:43;10.47;;;6.00;;
16979;SDS011;42288;52.182;21.156;2024-01-15T09:58:09;10.80;;;5.60;;
16979;SDS011;42288;52.182;21.156;2024-01-15T10:00:35;9.47;;;5.40;;
16979;SDS011;42288;52.182;21.156;2024-01-15T10:03:04;9.57;;;5.23;;
16979;SDS011;42288;52.182;21.156;2024-01-15T10:05:31;14.67;;;6.37;;
16979;SDS011;42288;52.182;21.156;2024-01-15T10:07:57;14.27;;;5.80;;
16979;SDS011;42288;52.182;21.156;2024-01-15T10:10:25;12.77;;;4.90;;
16979;SDS011;42288;52.182;21.156;2024-01-15T10:12:50;10.73;;;5.47;;
16979;SDS011;42288;52.182;21.156;2024-01-15T10:15:16;14.37;;;5.90;;
16979;SDS011;42288;52.182;21.156;2024-01-15T10:17:42;10.60;;;4.73;;
16979;SDS011;42288;52.182;21.156;2024-01-15T10:20:11;11.07;;;4.90;;
16979;SDS011;42288;52.182;21.156;2024-01-15T10:22:40;11.80;;;6.00;;
16979;SDS011;42288;52.182;21.156;2024-01-15T10:25:09;11.07;;;5.20;;
16979;SDS011;42288;52.182;21.156;2024-01-15T10:27:35;20.90;;;8.00;;
16979;SDS011;42288;52.182;21.156;2024-01-15T10:30:01;15.23;;;7.17;;
16979;SDS011;42288;52.182;21.156;2024-01-15T10:32:28;18.33;;;8.47;;
16979;SDS011;42288;52.182;21.156;2024-01-15T10:34:53;17.20;;;6.80;;
16979;SDS011;42288;52.182;21.156;2024-01-15T10:37:19;13.30;;;6.63;;
16979;SDS011;42288;52.182;21.156;2024-01-15T10:39:46;15.53;;;6.33;;
16979;SDS011;42288;52.182;21.156;2024-01-15T10:42:11;11.40;;;5.87;;
16979;SDS011;42288;52.182;21.156;2024-01-15T10:44:37;11.30;;;4.93;;
16979;SDS011;42288;52.182;21.156;2024-01-15T10:47:03;17.17;;;6.67;;
16979;SDS011;42288;52.182;21.156;2024-01-15T10:49:29;23.20;;;7.10;;
16979;SDS011;42288;52.182;21.156;2024-01-15T10:51:55;15.90;;;6.47;;
16979;SDS011;42288;52.182;21.156;2024-01-15T10:54:22;13.73;;;6.13;;
16979;SDS011;42288;52.182;21.156;2024-01-15T10:56:49;13.07;;;5.77;;
16979;SDS011;42288;52.182;21.156;2024-01-15T10:59:16;15.00;;;6.27;;
16979;SDS011;42288;52.182;21.156;2024-01-15T11:01:43;13.20;;;5.07;;
16979;SDS011;42288;52.182;21.156;2024-01-15T11:04:11;13.67;;;5.70;;
16979;SDS011;42288;52.182;21.156;2024-01-15T11:06:44;11.60;;;6.03;;
16979;SDS011;42288;52.182;21.156;2024-01-15T11:09:11;9.57;;;4.80;;
16979;SDS011;42288;52.182;21.156;2024-01-15T11:11:40;13.83;;;5.70;;
16979;SDS011;42288;52.182;21.156;2024-01-15T11:14:06;11.93;;;5.63;;
16979;SDS011;42288;52.182;21.156;2024-01-15T11:19:18;9.80;;;5.00;;
16979;SDS011;42288;52.182;21.156;2024-01-15T11:21:44;16.03;;;6.70;;
16979;SDS011;42288;52.182;21.156;2024-01-15T11:24:09;11.63;;;6.30;;
16979;SDS011;42288;52.182;21.156;2024-01-15T11:26:38;15.00;;;6.07;;
16979;SDS011;42288;52.182;21.156;2024-01-15T11:34:20;11.73;;;6.27;;
16979;SDS011;42288;52.182;21.156;2024-01-15T11:41:55;11.47;;;6.10;;
16979;SDS011;42288;52.182;21.156;2024-01-15T11:44:21;14.43;;;6.63;;
16979;SDS011;42288;52.182;21.156;2024-01-15T11:47:08;14.03;;;6.37;;
16979;SDS011;42288;52.182;21.156;2024-01-15T11:49:57;12.97;;;6.43;;
16979;SDS011;42288;52.182;21.156;2024-01-15T11:52:23;18.07;;;7.27;;
16979;SDS011;42288;52.182;21.156;2024-01-15T11:57:54;13.93;;;7.00;;
16979;SDS011;42288;52.182;21.156;2024-01-15T12:00:22;12.70;;;6.53;;
16979;SDS011;42288;52.182;21.156;2024-01-15T12:02:49;17.87;;;7.70;;
16979;SDS011;42288;52.182;21.156;2024-01-15T12:05:16;15.03;;;7.73;;
16979;SDS011;42288;52.182;21.156;2024-01-15T12:07:44;15.70;;;8.00;;
16979;SDS011;42288;52.182;21.156;2024-01-15T12:10:11;18.07;;;7.90;;
16979;SDS011;42288;52.182;21.156;2024-01-15T12:12:39;13.87;;;7.80;;
16979;SDS011;42288;52.182;21.156;2024-01-15T12:15:18;15.30;;;7.03;;
16979;SDS011;42288;52.182;21.156;2024-01-15T12:17:45;14.43;;;6.93;;
16979;SDS011;42288;52.182;21.156;2024-01-15T12:20:12;14.20;;;6.67;;
16979;SDS011;42288;52.182;21.156;2024-01-15T12:22:38;22.33;;;7.60;;
16979;SDS011;42288;52.182;21.156;2024-01-15T12:25:04;15.97;;;8.07;;
16979;SDS011;42288;52.182;21.156;2024-01-15T12:27:30;14.33;;;6.63;;
16979;SDS011;42288;52.182;21.156;2024-01-15T12:29:56;19.87;;;8.27;;
16979;SDS011;42288;52.182;21.156;2024-01-15T12:32:23;17.73;;;8.87;;
16979;SDS011;42288;52.182;21.156;2024-01-15T12:34:49;18.17;;;8.17;;
16979;SDS011;42288;52.182;21.156;2024-01-15T12:37:17;18.43;;;9.13;;
16979;SDS011;42288;52.182;21.156;2024-01-15T12:39:43;15.13;;;7.33;;
16979;SDS011;42288;52.182;21.156;2024-01-15T12:42:09;17.40;;;9.37;;
16979;SDS011;42288;52.182;21.156;2024-01-15T12:44:35;19.93;;;9.30;;
16979;SDS011;42288;52.182;21.156;2024-01-15T12:47:03;20.87;;;10.63;;
16979;SDS011;42288;52.182;21.156;2024-01-15T12:49:29;25.33;;;10.20;;
16979;SDS011;42288;52.182;21.156;2024-01-15T12:51:58;20.67;;;10.37;;
16979;SDS011;42288;52.182;21.156;2024-01-15T12:54:24;17.53;;;9.27;;
16979;SDS011;42288;52.182;21.156;2024-01-15T12:56:51;24.00;;;10.63;;
16979;SDS011;42288;52.182;21.156;2024-01-15T12:59:17;22.90;;;9.87;;
16979;SDS011;42288;52.182;21.156;2024-01-15T13:01:43;18.13;;;9.20;;
16979;SDS011;42288;52.182;21.156;2024-01-15T13:04:10;19.20;;;8.23;;
16979;SDS011;42288;52.182;21.156;2024-01-15T13:06:36;17.40;;;7.60;;
16979;SDS011;42288;52.182;21.156;2024-01-15T13:09:02;15.33;;;6.93;;
16979;SDS011;42288;52.182;21.156;2024-01-15T13:11:30;13.53;;;7.03;;
16979;SDS011;42288;52.182;21.156;2024-01-15T13:13:58;19.63;;;8.47;;
16979;SDS011;42288;52.182;21.156;2024-01-15T13:16:24;28.77;;;9.10;;
16979;SDS011;42288;52.182;21.156;2024-01-15T13:18:53;29.57;;;10.40;;
16979;SDS011;42288;52.182;21.156;2024-01-15T13:21:19;29.53;;;12.37;;
16979;SDS011;42288;52.182;21.156;2024-01-15T13:23:44;40.80;;;13.33;;
16979;SDS011;42288;52.182;21.156;2024-01-15T13:26:10;37.97;;;14.60;;
16979;SDS011;42288;52.182;21.156;2024-01-15T13:28:35;32.57;;;13.27;;
16979;SDS011;42288;52.182;21.156;2024-01-15T13:31:01;23.77;;;9.30;;
16979;SDS011;42288;52.182;21.156;2024-01-15T13:33:27;32.60;;;13.30;;
16979;SDS011;42288;52.182;21.156;2024-01-15T13:35:53;29.07;;;12.93;;
16979;SDS011;42288;52.182;21.156;2024-01-15T13:38:18;24.10;;;10.50;;
16979;SDS011;42288;52.182;21.156;2024-01-15T13:40:44;27.03;;;10.63;;
16979;SDS011;42288;52.182;21.156;2024-01-15T13:43:10;24.87;;;10.63;;
16979;SDS011;42288;52.182;21.156;2024-01-15T13:45:36;26.67;;;11.67;;
16979;SDS011;42288;52.182;21.156;2024-01-15T13:48:02;24.27;;;9.27;;
16979;SDS011;42288;52.182;21.156;2024-01-15T13:50:30;16.30;;;8.70;;
16979;SDS011;42288;52.182;21.156;2024-01-15T13:52:56;24.97;;;9.77;;
16979;SDS011;42288;52.182;21.156;2024-01-15T13:55:22;25.93;;;10.07;;
16979;SDS011;42288;52.182;21.156;2024-01-15T13:57:48;20.10;;;9.63;;
16979;SDS011;42288;52.182;21.156;2024-01-15T14:00:13;16.50;;;7.67;;
16979;SDS011;42288;52.182;21.156;2024-01-15T14:02:43;21.13;;;9.47;;
16979;SDS011;42288;52.182;21.156;2024-01-15T14:05:09;23.97;;;9.10;;
16979;SDS011;42288;52.182;21.156;2024-01-15T14:07:37;22.73;;;10.13;;
16979;SDS011;42288;52.182;21.156;2024-01-15T14:10:04;22.03;;;9.10;;
16979;SDS011;42288;52.182;21.156;2024-01-15T14:12:30;20.10;;;8.37;;
16979;SDS011;42288;52.182;21.156;2024-01-15T14:14:56;20.53;;;8.40;;
16979;SDS011;42288;52.182;21.156;2024-01-15T14:17:22;19.83;;;8.30;;
16979;SDS011;42288;52.182;21.156;2024-01-15T14:19:47;18.90;;;8.73;;
16979;SDS011;42288;52.182;21.156;2024-01-15T14:22:13;19.87;;;8.27;;
16979;SDS011;42288;52.182;21.156;2024-01-15T14:24:38;22.40;;;9.17;;
16979;SDS011;42288;52.182;21.156;2024-01-15T14:27:04;18.17;;;7.77;;